createdAt,value
2022-12-03T00:02:11.883Z,23.51
2022-12-03T00:04:38.306Z,23.81
2022-12-03T00:07:04.924Z,23.67
2022-12-03T00:09:31.377Z,23.54
2022-12-03T00:11:57.774Z,23.65
2022-12-03T00:14:24.116Z,23.61
2022-12-03T00:16:50.467Z,23.67
2022-12-03T00:19:16.823Z,23.92
2022-12-03T00:21:43.211Z,24.44
2022-12-03T00:24:09.569Z,24.16
2022-12-03T00:26:35.975Z,23.93
2022-12-03T00:29:02.358Z,24.35
2022-12-03T00:31:28.791Z,24.27
2022-12-03T00:33:55.171Z,25.21
2022-12-03T00:36:21.550Z,25.09
2022-12-03T00:38:47.957Z,25.47
2022-12-03T00:41:14.388Z,25.50
2022-12-03T00:43:40.747Z,25.73
2022-12-03T00:46:07.142Z,25.25
2022-12-03T00:48:33.569Z,25.32
2022-12-03T00:50:59.908Z,25.37
2022-12-03T00:53:26.295Z,25.71
2022-12-03T00:55:52.708Z,25.52
2022-12-03T00:58:19.090Z,25.73
2022-12-03T01:00:45.480Z,26.14
2022-12-03T01:03:11.856Z,26.33
2022-12-03T01:05:38.211Z,25.37
2022-12-03T01:08:04.681Z,25.13
2022-12-03T01:10:31.099Z,25.12
2022-12-03T01:12:57.457Z,25.42
2022-12-03T01:15:23.838Z,25.42
2022-12-03T01:17:50.239Z,25.79
2022-12-03T01:20:16.624Z,26.14
2022-12-03T01:22:43.013Z,26.29
2022-12-03T01:25:09.358Z,26.52
2022-12-03T01:27:35.736Z,26.23
2022-12-03T01:30:02.141Z,26.28
2022-12-03T01:32:28.487Z,26.41
2022-12-03T01:34:55.279Z,25.94
2022-12-03T01:37:21.979Z,24.95
2022-12-03T01:39:48.361Z,25.53
2022-12-03T01:42:14.717Z,26.10
2022-12-03T01:44:41.112Z,25.51
2022-12-03T01:47:07.559Z,26.16
2022-12-03T01:49:33.976Z,25.83
2022-12-03T01:52:00.364Z,25.00
2022-12-03T01:54:26.722Z,26.06
2022-12-03T01:56:53.075Z,25.18
2022-12-03T01:59:19.420Z,26.20
2022-12-03T02:01:45.843Z,26.14
2022-12-03T02:04:12.267Z,24.95
2022-12-03T02:06:38.717Z,25.37
2022-12-03T02:09:05.058Z,25.18
2022-12-03T02:11:31.385Z,25.28
2022-12-03T02:13:57.794Z,25.12
2022-12-03T02:16:24.216Z,25.59
2022-12-03T02:18:50.663Z,25.63
2022-12-03T02:21:17.077Z,26.20
2022-12-03T02:23:43.429Z,26.07
2022-12-03T02:26:09.807Z,25.61
2022-12-03T02:28:36.156Z,25.32
2022-12-03T02:31:02.580Z,25.93
2022-12-03T02:33:29.003Z,25.00
2022-12-03T02:35:59.105Z,25.56
2022-12-03T02:38:28.415Z,25.26
2022-12-03T02:40:54.766Z,25.36
2022-12-03T02:43:21.138Z,25.49
2022-12-03T02:45:47.487Z,26.00
2022-12-03T02:48:13.862Z,26.95
2022-12-03T02:50:40.274Z,26.61
2022-12-03T02:53:06.632Z,26.76
2022-12-03T02:55:48.047Z,26.40
2022-12-03T02:58:14.442Z,26.95
2022-12-03T03:00:40.848Z,25.82
2022-12-03T03:03:07.256Z,26.11
2022-12-03T03:05:33.617Z,26.24
2022-12-03T03:08:00.133Z,26.17
2022-12-03T03:10:26.595Z,25.59
2022-12-03T03:12:52.987Z,25.24
2022-12-03T03:15:19.384Z,25.45
2022-12-03T03:17:45.735Z,25.78
2022-12-03T03:20:12.091Z,25.23
2022-12-03T03:22:38.473Z,25.70
2022-12-03T03:25:04.863Z,25.49
2022-12-03T03:27:31.259Z,25.12
2022-12-03T03:29:57.606Z,24.72
2022-12-03T03:32:23.983Z,24.07
2022-12-03T03:34:50.524Z,24.05
2022-12-03T03:37:16.935Z,24.32
2022-12-03T03:39:43.279Z,24.08
2022-12-03T03:42:09.632Z,23.95
2022-12-03T03:44:35.967Z,23.49
2022-12-03T03:47:02.349Z,23.66
2022-12-03T03:49:28.749Z,23.85
2022-12-03T03:51:55.096Z,23.91
2022-12-03T03:54:21.446Z,24.34
2022-12-03T03:56:47.780Z,25.53
2022-12-03T03:59:14.159Z,24.13
2022-12-03T04:01:40.600Z,24.11
2022-12-03T04:04:07.055Z,24.43
2022-12-03T04:06:33.450Z,24.90
2022-12-03T04:08:59.806Z,24.73
2022-12-03T04:11:26.206Z,25.27
2022-12-03T04:13:52.597Z,26.09
2022-12-03T04:16:19.035Z,25.42
2022-12-03T04:18:45.444Z,25.54
2022-12-03T04:21:11.845Z,25.87
2022-12-03T04:23:38.238Z,26.36
2022-12-03T04:26:04.576Z,25.80
2022-12-03T04:28:30.903Z,27.28
2022-12-03T04:30:57.298Z,28.01
2022-12-03T04:33:23.722Z,27.83
2022-12-03T04:35:50.160Z,28.09
2022-12-03T04:38:16.581Z,28.00
2022-12-03T04:40:42.961Z,27.46
2022-12-03T04:43:09.342Z,28.03
2022-12-03T04:45:35.822Z,27.76
2022-12-03T04:48:02.224Z,27.47
2022-12-03T04:50:28.614Z,27.22
2022-12-03T04:52:54.972Z,27.25
2022-12-03T04:55:21.302Z,26.56
2022-12-03T04:57:47.643Z,26.24
2022-12-03T05:00:13.991Z,24.84
2022-12-03T05:02:40.436Z,23.49
2022-12-03T05:05:06.872Z,23.48
2022-12-03T05:07:33.308Z,23.10
2022-12-03T05:09:59.749Z,22.94
2022-12-03T05:12:26.097Z,22.97
2022-12-03T05:14:52.689Z,23.40
2022-12-03T05:17:19.254Z,24.02
2022-12-03T05:19:45.583Z,23.52
2022-12-03T05:22:11.975Z,22.92
2022-12-03T05:24:38.357Z,22.92
2022-12-03T05:27:04.703Z,23.15
2022-12-03T05:29:31.047Z,23.31
2022-12-03T05:31:57.429Z,22.52
2022-12-03T05:34:23.838Z,23.02
2022-12-03T05:36:50.227Z,22.66
2022-12-03T05:39:16.582Z,22.42
2022-12-03T05:41:42.914Z,23.00
2022-12-03T05:44:09.289Z,22.57
2022-12-03T05:46:35.701Z,23.78
2022-12-03T05:49:02.114Z,22.69
2022-12-03T05:51:28.509Z,22.74
2022-12-03T05:53:54.870Z,23.09
2022-12-03T05:56:21.241Z,23.65
2022-12-03T05:58:47.698Z,23.71
2022-12-03T06:01:14.051Z,22.95
2022-12-03T06:03:40.560Z,22.45
2022-12-03T06:06:07.054Z,22.96
2022-12-03T06:08:33.418Z,23.31
2022-12-03T06:10:59.761Z,23.36
2022-12-03T06:13:26.109Z,22.81
2022-12-03T06:15:52.542Z,22.45
2022-12-03T06:18:18.931Z,24.30
2022-12-03T06:20:45.314Z,23.82
2022-12-03T06:23:11.692Z,23.89
2022-12-03T06:25:38.046Z,24.56
2022-12-03T06:28:04.427Z,23.27
2022-12-03T06:30:30.782Z,22.39
2022-12-03T06:32:57.110Z,22.44
2022-12-03T06:35:23.474Z,22.30
2022-12-03T06:37:49.808Z,23.14
2022-12-03T06:40:16.164Z,22.90
2022-12-03T06:42:42.498Z,22.86
2022-12-03T06:45:08.881Z,22.30
2022-12-03T06:47:35.341Z,22.26
2022-12-03T06:50:01.693Z,23.17
2022-12-03T06:52:28.062Z,22.28
2022-12-03T06:54:54.638Z,23.35
2022-12-03T06:57:21.153Z,22.46
2022-12-03T06:59:47.507Z,22.23
2022-12-03T07:02:13.943Z,22.88
2022-12-03T07:04:44.808Z,22.61
2022-12-03T07:07:12.695Z,22.16
2022-12-03T07:09:39.079Z,22.76
2022-12-03T07:12:05.480Z,21.97
2022-12-03T07:14:31.839Z,22.88
2022-12-03T07:16:58.171Z,22.01
2022-12-03T07:19:30.700Z,22.40
2022-12-03T07:21:58.790Z,22.63
2022-12-03T07:24:25.160Z,22.80
2022-12-03T07:26:51.510Z,23.36
2022-12-03T07:29:18.034Z,23.05
2022-12-03T07:31:44.518Z,22.85
2022-12-03T07:34:10.939Z,22.78
2022-12-03T07:36:37.293Z,23.57
2022-12-03T07:39:03.688Z,22.63
2022-12-03T07:41:30.038Z,23.37
2022-12-03T07:43:56.381Z,22.93
2022-12-03T07:46:22.779Z,23.12
2022-12-03T07:48:49.161Z,25.44
2022-12-03T07:51:15.792Z,23.50
2022-12-03T07:53:42.189Z,23.39
2022-12-03T07:56:08.590Z,22.82
2022-12-03T07:58:34.940Z,23.79
2022-12-03T08:01:01.409Z,23.75
2022-12-03T08:03:27.845Z,22.71
2022-12-03T08:05:54.238Z,22.53
2022-12-03T08:08:20.674Z,23.07
2022-12-03T08:10:47.061Z,21.73
2022-12-03T08:13:13.406Z,22.36
2022-12-03T08:15:39.930Z,22.41
2022-12-03T08:18:06.297Z,22.68
2022-12-03T08:20:32.667Z,22.46
2022-12-03T08:22:59.086Z,22.48
2022-12-03T08:25:25.434Z,24.71
2022-12-03T08:27:51.780Z,24.70
2022-12-03T08:30:18.157Z,23.09
2022-12-03T08:32:44.516Z,23.60
2022-12-03T08:35:10.901Z,25.24
2022-12-03T08:37:37.266Z,28.53
2022-12-03T08:40:03.637Z,25.36
2022-12-03T08:42:30.399Z,24.59
2022-12-03T08:44:57.429Z,24.20
2022-12-03T08:47:24.053Z,24.05
2022-12-03T08:49:50.462Z,24.01
2022-12-03T08:52:16.850Z,24.05
2022-12-03T08:54:43.207Z,23.48
2022-12-03T08:57:09.586Z,23.94
2022-12-03T08:59:35.987Z,24.86
2022-12-03T09:02:02.327Z,23.13
2022-12-03T09:04:28.748Z,23.98
2022-12-03T09:06:55.169Z,23.47
2022-12-03T09:09:21.525Z,22.90
2022-12-03T09:11:47.923Z,23.22
2022-12-03T09:14:18.443Z,23.27
2022-12-03T09:16:45.207Z,23.15
2022-12-03T09:19:11.649Z,23.63
2022-12-03T09:21:38.011Z,23.49
2022-12-03T09:24:04.419Z,24.20
2022-12-03T09:26:30.827Z,23.67
2022-12-03T09:28:57.259Z,25.49
2022-12-03T09:31:23.651Z,23.63
2022-12-03T09:33:50.093Z,24.10
2022-12-03T09:36:16.494Z,22.74
2022-12-03T09:38:46.211Z,23.90
2022-12-03T09:41:14.372Z,23.34
2022-12-03T09:44:03.389Z,22.56
2022-12-03T09:46:27.141Z,21.94
2022-12-03T09:48:53.546Z,22.01
2022-12-03T09:51:19.895Z,22.47
2022-12-03T09:53:46.255Z,20.88
2022-12-03T09:56:12.616Z,22.12
2022-12-03T09:58:39.024Z,21.60
2022-12-03T10:01:05.446Z,21.84
2022-12-03T10:03:31.868Z,22.35
2022-12-03T10:05:58.272Z,22.31
2022-12-03T10:08:29.355Z,22.69
2022-12-03T10:10:58.301Z,22.07
2022-12-03T10:13:26.072Z,23.25
2022-12-03T10:15:52.600Z,24.75
2022-12-03T10:18:18.987Z,24.00
2022-12-03T10:20:45.362Z,25.24
2022-12-03T10:23:11.712Z,24.77
2022-12-03T10:25:38.067Z,24.96
2022-12-03T10:28:04.446Z,25.66
2022-12-03T10:30:30.885Z,25.35
2022-12-03T10:32:57.317Z,25.11
2022-12-03T10:35:23.671Z,25.76
2022-12-03T10:37:50.042Z,26.19
2022-12-03T10:40:16.381Z,24.96
2022-12-03T10:42:42.721Z,23.91
2022-12-03T10:45:09.131Z,23.86
2022-12-03T10:47:35.604Z,23.97
2022-12-03T10:50:02.032Z,23.52
2022-12-03T10:52:28.387Z,23.92
2022-12-03T10:54:54.829Z,22.88
2022-12-03T10:57:21.454Z,21.92
2022-12-03T10:59:47.833Z,21.52
2022-12-03T11:02:14.187Z,23.03
2022-12-03T11:04:40.566Z,22.65
2022-12-03T11:07:06.931Z,23.11
2022-12-03T11:09:33.308Z,24.46
2022-12-03T11:11:59.699Z,24.20
2022-12-03T11:14:26.101Z,22.91
2022-12-03T11:16:52.506Z,21.43
2022-12-03T11:19:18.853Z,22.65
2022-12-03T11:21:45.206Z,22.22
2022-12-03T11:24:11.561Z,22.26
2022-12-03T11:26:38.503Z,20.79
2022-12-03T11:29:07.220Z,21.95
2022-12-03T11:31:33.653Z,22.09
2022-12-03T11:34:00.015Z,22.74
2022-12-03T11:36:47.638Z,21.58
2022-12-03T11:39:12.826Z,22.29
2022-12-03T11:41:39.216Z,21.87
2022-12-03T11:44:05.564Z,23.77
2022-12-03T11:46:32.018Z,25.61
2022-12-03T11:48:58.436Z,22.92
2022-12-03T11:51:24.787Z,21.48
2022-12-03T11:53:51.140Z,21.30
2022-12-03T11:56:17.488Z,21.58
2022-12-03T11:58:43.861Z,23.76
2022-12-03T12:01:10.239Z,24.51
2022-12-03T12:03:36.683Z,22.07
2022-12-03T12:06:03.138Z,22.92
2022-12-03T12:08:29.574Z,23.44
2022-12-03T12:10:56.001Z,22.28
2022-12-03T12:13:22.384Z,21.99
2022-12-03T12:15:48.843Z,22.24
2022-12-03T12:18:15.228Z,22.05
2022-12-03T12:20:41.638Z,21.49
2022-12-03T12:23:08.021Z,21.77
2022-12-03T12:25:34.401Z,21.76
2022-12-03T12:28:00.746Z,21.47
2022-12-03T12:30:27.079Z,21.52
2022-12-03T12:32:53.410Z,22.37
2022-12-03T12:35:19.782Z,21.35
2022-12-03T12:37:47.744Z,21.28
2022-12-03T12:40:14.982Z,21.68
2022-12-03T12:42:41.411Z,20.67
2022-12-03T12:45:07.791Z,20.72
2022-12-03T12:47:34.433Z,20.52
2022-12-03T12:50:00.911Z,21.82
2022-12-03T12:52:27.344Z,21.69
2022-12-03T12:54:53.695Z,20.90
2022-12-03T12:57:20.041Z,21.32
2022-12-03T12:59:46.373Z,21.70
2022-12-03T13:02:12.824Z,21.75
2022-12-03T13:04:39.225Z,21.56
2022-12-03T13:07:05.563Z,23.89
2022-12-03T13:09:31.984Z,22.01
2022-12-03T13:11:58.368Z,25.65
2022-12-03T13:14:24.721Z,22.21
2022-12-03T13:16:51.145Z,22.96
2022-12-03T13:19:17.616Z,22.10
2022-12-03T13:21:43.996Z,21.87
2022-12-03T13:24:10.349Z,21.45
2022-12-03T13:26:39.297Z,21.22
2022-12-03T13:29:05.955Z,20.58
2022-12-03T13:31:32.419Z,20.81
2022-12-03T13:33:58.887Z,20.29
2022-12-03T13:36:25.221Z,20.37
2022-12-03T13:38:51.597Z,20.29
2022-12-03T13:41:17.961Z,20.64
2022-12-03T13:43:44.612Z,20.29
2022-12-03T13:46:11.183Z,21.35
2022-12-03T13:48:37.613Z,23.15
2022-12-03T13:51:04.028Z,23.93
2022-12-03T13:53:30.432Z,22.50
2022-12-03T13:55:56.829Z,21.45
2022-12-03T13:58:23.216Z,23.14
2022-12-03T14:00:49.622Z,22.00
2022-12-03T14:03:16.108Z,20.71
2022-12-03T14:05:42.455Z,20.93
2022-12-03T14:08:08.868Z,20.64
2022-12-03T14:10:35.341Z,21.29
2022-12-03T14:13:01.692Z,21.06
2022-12-03T14:15:28.045Z,21.41
2022-12-03T14:17:54.426Z,22.19
2022-12-03T14:20:20.825Z,22.81
2022-12-03T14:22:47.178Z,22.33
2022-12-03T14:25:13.574Z,21.32
2022-12-03T14:27:39.922Z,20.07
2022-12-03T14:30:06.259Z,20.71
2022-12-03T14:32:32.611Z,24.61
2022-12-03T14:34:58.947Z,28.45
2022-12-03T14:37:25.318Z,29.08
2022-12-03T14:39:51.849Z,25.61
2022-12-03T14:42:18.524Z,26.13
2022-12-03T14:44:44.917Z,22.25
2022-12-03T14:47:11.300Z,22.28
2022-12-03T14:49:37.786Z,21.26
2022-12-03T14:52:04.230Z,21.22
2022-12-03T14:54:30.640Z,21.48
2022-12-03T14:56:56.999Z,21.48
2022-12-03T14:59:27.596Z,23.31
2022-12-03T15:01:54.358Z,23.33
2022-12-03T15:04:20.905Z,22.91
2022-12-03T15:06:47.295Z,22.49
2022-12-03T15:09:13.634Z,23.43
2022-12-03T15:11:45.771Z,22.96
2022-12-03T15:14:12.634Z,21.99
2022-12-03T15:16:39.105Z,22.21
2022-12-03T15:19:05.534Z,21.27
2022-12-03T15:21:31.931Z,21.10
2022-12-03T15:23:58.348Z,20.73
2022-12-03T15:26:24.738Z,21.85
2022-12-03T15:28:51.145Z,20.80
2022-12-03T15:31:17.600Z,19.77
2022-12-03T15:33:43.984Z,19.22
2022-12-03T15:36:10.387Z,19.58
2022-12-03T15:38:36.742Z,19.99
2022-12-03T15:41:03.157Z,21.43
2022-12-03T15:43:29.501Z,22.22
2022-12-03T15:45:55.887Z,21.73
2022-12-03T15:48:22.244Z,20.76
2022-12-03T15:50:48.624Z,20.57
2022-12-03T15:53:15.002Z,21.28
2022-12-03T15:55:41.382Z,21.92
2022-12-03T15:58:07.772Z,21.14
2022-12-03T16:00:34.160Z,22.04
2022-12-03T16:03:00.630Z,20.41
2022-12-03T16:05:27.034Z,19.70
2022-12-03T16:07:53.484Z,19.92
2022-12-03T16:10:19.861Z,19.73
2022-12-03T16:12:46.238Z,20.09
2022-12-03T16:15:12.592Z,19.94
2022-12-03T16:17:38.941Z,21.66
2022-12-03T16:20:05.375Z,21.01
2022-12-03T16:22:31.757Z,19.68
2022-12-03T16:24:58.107Z,19.92
2022-12-03T16:27:26.062Z,21.02
2022-12-03T16:29:52.952Z,21.16
2022-12-03T16:32:19.680Z,20.94
2022-12-03T16:34:46.070Z,21.02
2022-12-03T16:37:12.470Z,21.77
2022-12-03T16:39:38.823Z,21.87
2022-12-03T16:42:07.081Z,20.01
2022-12-03T16:44:36.800Z,20.37
2022-12-03T16:47:03.197Z,20.67
2022-12-03T16:49:29.598Z,19.61
2022-12-03T16:51:56.007Z,20.38
2022-12-03T16:54:22.391Z,22.51
2022-12-03T16:56:48.840Z,21.02
2022-12-03T16:59:15.250Z,21.90
2022-12-03T17:01:41.719Z,21.81
2022-12-03T17:04:08.161Z,20.58
2022-12-03T17:06:34.551Z,21.88
2022-12-03T17:09:00.924Z,25.69
2022-12-03T17:11:27.315Z,22.03
2022-12-03T17:13:53.718Z,19.48
2022-12-03T17:16:20.214Z,30.12
2022-12-03T17:18:46.665Z,22.86
2022-12-03T17:21:13.058Z,22.84
2022-12-03T17:23:39.462Z,22.09
2022-12-03T17:26:05.857Z,25.01
2022-12-03T17:28:34.993Z,23.07
2022-12-03T17:31:01.460Z,23.13
2022-12-03T17:33:27.890Z,24.62
2022-12-03T17:35:54.253Z,24.74
2022-12-03T17:38:20.638Z,24.00
2022-12-03T17:40:46.992Z,21.83
2022-12-03T17:43:13.376Z,21.37
2022-12-03T17:45:39.718Z,22.52
2022-12-03T17:48:06.102Z,22.21
2022-12-03T17:50:32.516Z,21.16
2022-12-03T17:52:58.920Z,19.98
2022-12-03T17:55:33.842Z,21.15
2022-12-03T17:58:03.559Z,20.01
2022-12-03T18:00:29.956Z,19.86
2022-12-03T18:02:56.333Z,22.38
2022-12-03T18:05:22.732Z,22.83
2022-12-03T18:07:49.298Z,19.48
2022-12-03T18:10:15.679Z,19.41
2022-12-03T18:12:42.063Z,19.64
2022-12-03T18:15:08.465Z,19.80
2022-12-03T18:17:34.880Z,18.44
2022-12-03T18:20:01.253Z,20.09
2022-12-03T18:22:27.641Z,21.10
2022-12-03T18:24:54.040Z,23.77
2022-12-03T18:27:20.451Z,21.72
2022-12-03T18:29:46.835Z,19.32
2022-12-03T18:32:27.716Z,20.15
2022-12-03T18:34:56.943Z,18.90
2022-12-03T18:37:23.303Z,19.26
2022-12-03T18:39:49.667Z,19.48
2022-12-03T18:42:16.023Z,20.01
2022-12-03T18:44:47.865Z,20.32
2022-12-03T18:47:15.808Z,20.25
2022-12-03T18:49:42.161Z,19.18
2022-12-03T18:52:08.508Z,19.61
2022-12-03T18:54:34.913Z,18.14
2022-12-03T18:57:01.269Z,18.73
2022-12-03T18:59:27.648Z,18.06
2022-12-03T19:01:54.085Z,18.91
2022-12-03T19:04:20.538Z,19.47
2022-12-03T19:06:46.937Z,18.94
2022-12-03T19:09:13.332Z,18.95
2022-12-03T19:11:39.689Z,20.25
2022-12-03T19:14:06.079Z,19.74
2022-12-03T19:16:32.536Z,19.79
2022-12-03T19:18:58.923Z,19.97
2022-12-03T19:21:29.391Z,20.22
2022-12-03T19:24:23.184Z,20.40
2022-12-03T19:26:45.055Z,20.62
2022-12-03T19:29:11.461Z,19.69
2022-12-03T19:31:37.938Z,20.62
2022-12-03T19:34:04.387Z,20.88
2022-12-03T19:36:30.782Z,21.63
2022-12-03T19:38:57.650Z,21.59
2022-12-03T19:41:24.053Z,22.01
2022-12-03T19:43:50.482Z,20.87
2022-12-03T19:46:16.900Z,21.05
2022-12-03T19:48:43.279Z,20.98
2022-12-03T19:51:32.974Z,22.79
2022-12-03T19:53:55.940Z,23.19
2022-12-03T19:56:22.281Z,21.94
2022-12-03T19:58:48.734Z,22.29
2022-12-03T20:01:15.128Z,20.99
2022-12-03T20:03:41.494Z,20.55
2022-12-03T20:06:07.827Z,20.86
2022-12-03T20:08:34.237Z,21.28
2022-12-03T20:11:00.631Z,20.29
2022-12-03T20:13:29.819Z,20.55
2022-12-03T20:15:58.716Z,20.55
2022-12-03T20:18:25.194Z,20.60
2022-12-03T20:20:51.594Z,21.00
2022-12-03T20:23:17.954Z,20.74
2022-12-03T20:25:44.333Z,21.34
2022-12-03T20:28:10.682Z,21.64
2022-12-03T20:30:37.052Z,24.00
2022-12-03T20:33:03.449Z,25.54
2022-12-03T20:35:29.787Z,28.88
2022-12-03T20:37:56.159Z,25.88
2022-12-03T20:40:22.502Z,23.62
2022-12-03T20:42:48.878Z,22.83
2022-12-03T20:45:15.271Z,22.46
2022-12-03T20:47:41.614Z,22.27
2022-12-03T20:50:07.952Z,22.00
2022-12-03T20:52:34.336Z,21.87
2022-12-03T20:55:00.725Z,22.45
2022-12-03T20:57:27.095Z,21.64
2022-12-03T20:59:53.741Z,21.59
2022-12-03T21:02:20.477Z,21.41
2022-12-03T21:04:47.032Z,20.30
2022-12-03T21:07:13.430Z,19.54
2022-12-03T21:09:39.841Z,21.02
2022-12-03T21:12:06.254Z,20.08
2022-12-03T21:14:32.642Z,19.83
2022-12-03T21:17:08.465Z,20.43
2022-12-03T21:19:35.417Z,22.11
2022-12-03T21:22:01.762Z,21.04
2022-12-03T21:24:28.153Z,21.08
2022-12-03T21:26:54.545Z,20.79
2022-12-03T21:29:20.953Z,20.69
2022-12-03T21:31:47.434Z,20.07
2022-12-03T21:34:13.812Z,19.89
2022-12-03T21:36:40.180Z,19.88
2022-12-03T21:39:06.549Z,19.97
2022-12-03T21:41:32.903Z,19.32
2022-12-03T21:43:59.253Z,19.80
2022-12-03T21:47:10.469Z,20.16
2022-12-03T21:49:11.999Z,19.87
2022-12-03T21:51:38.416Z,19.92
2022-12-03T21:54:04.780Z,19.62
2022-12-03T21:56:31.300Z,19.85
2022-12-03T21:58:57.658Z,19.80
2022-12-03T22:01:24.070Z,19.98
2022-12-03T22:03:50.527Z,20.29
2022-12-03T22:06:16.918Z,20.21
2022-12-03T22:08:43.274Z,20.00
2022-12-03T22:11:09.708Z,19.54
2022-12-03T22:13:36.053Z,20.04
2022-12-03T22:16:02.499Z,20.14
2022-12-03T22:18:28.871Z,19.64
2022-12-03T22:20:55.251Z,19.78
2022-12-03T22:23:21.597Z,20.03
2022-12-03T22:25:47.975Z,20.57
2022-12-03T22:28:14.324Z,20.62
2022-12-03T22:30:40.748Z,19.84
2022-12-03T22:33:07.106Z,20.30
2022-12-03T22:35:33.452Z,19.22
2022-12-03T22:37:59.841Z,22.26
2022-12-03T22:40:26.210Z,23.26
2022-12-03T22:42:52.592Z,21.97
2022-12-03T22:45:18.977Z,21.17
2022-12-03T22:47:45.363Z,25.22
2022-12-03T22:50:12.554Z,25.30
2022-12-03T22:52:38.906Z,20.21
2022-12-03T22:55:05.268Z,19.28
2022-12-03T22:57:31.628Z,19.25
2022-12-03T22:59:58.032Z,19.25
2022-12-03T23:02:24.407Z,19.64
2022-12-03T23:04:50.837Z,19.44
2022-12-03T23:07:17.228Z,19.26
2022-12-03T23:09:43.628Z,19.03
2022-12-03T23:12:09.975Z,19.84
2022-12-03T23:14:36.320Z,19.68
2022-12-03T23:17:02.692Z,20.63
2022-12-03T23:19:29.085Z,19.86
2022-12-03T23:21:55.439Z,20.39
2022-12-03T23:24:21.778Z,21.04
2022-12-03T23:26:48.098Z,20.09
2022-12-03T23:29:14.433Z,20.54
2022-12-03T23:31:40.831Z,20.51
2022-12-03T23:34:07.269Z,20.06
2022-12-03T23:36:33.636Z,20.04
2022-12-03T23:39:00.024Z,20.41
2022-12-03T23:41:26.408Z,20.50
2022-12-03T23:43:52.777Z,21.23
2022-12-03T23:46:19.187Z,26.19
2022-12-03T23:48:45.583Z,21.00
2022-12-03T23:51:11.970Z,20.64
2022-12-03T23:53:38.336Z,21.27
2022-12-03T23:56:04.674Z,20.75
2022-12-03T23:58:31.030Z,20.31
